AJM45 MKJP-MKJS
Flight info
| Callsign | AJM45 |
|---|---|
| Flight time | 0h 23m |
| Altitude | 14000 |
| Route | LEXUV5 KEMBO OMAXI7 |
| Aircraft | A321/M-SDE3FGHIRWY/LB1 |
Departure
| Time | 2026-04-29 21:24 |
|---|---|
| Airport | Norman Manley International Airport (MKJP) |
Arrival
| Time | 2026-04-29 21:48 |
|---|---|
| Airport | Sangster International Airport (MKJS) |
| Time | Latitude | Longitude | Altitude | Speed | Heading |
|---|---|---|---|---|---|
| 2026-04-29 20:53 | 17.93739 | -76.78004 | 14 ft | 0 kts | 111° |
| 2026-04-29 21:12 | 17.93741 | -76.78008 | 14 ft | 2 kts | 111° |
| 2026-04-29 21:12 | 17.93747 | -76.78027 | 16 ft | 3 kts | 106° |
| 2026-04-29 21:13 | 17.93752 | -76.78042 | 14 ft | 2 kts | 107° |
| 2026-04-29 21:13 | 17.93755 | -76.78057 | 16 ft | 3 kts | 53° |
| 2026-04-29 21:13 | 17.93741 | -76.78068 | 18 ft | 3 kts | 31° |
| 2026-04-29 21:13 | 17.93728 | -76.78077 | 15 ft | 3 kts | 33° |
| 2026-04-29 21:14 | 17.93711 | -76.78088 | 14 ft | 3 kts | 26° |
| 2026-04-29 21:14 | 17.93693 | -76.78095 | 16 ft | 3 kts | 18° |
| 2026-04-29 21:14 | 17.93685 | -76.78098 | 14 ft | 0 kts | 22° |
| 2026-04-29 21:17 | 17.93690 | -76.78094 | 16 ft | 2 kts | 39° |
| 2026-04-29 21:17 | 17.93673 | -76.78091 | 16 ft | 9 kts | 204° |
| 2026-04-29 21:18 | 17.93578 | -76.78144 | 14 ft | 19 kts | 205° |
| 2026-04-29 21:18 | 17.93519 | -76.78193 | 14 ft | 12 kts | 264° |
| 2026-04-29 21:18 | 17.93554 | -76.78302 | 15 ft | 17 kts | 292° |
| 2026-04-29 21:18 | 17.93597 | -76.78415 | 14 ft | 16 kts | 292° |
| 2026-04-29 21:19 | 17.93638 | -76.78522 | 14 ft | 15 kts | 292° |
| 2026-04-29 21:19 | 17.93685 | -76.78640 | 14 ft | 22 kts | 292° |
| 2026-04-29 21:19 | 17.93742 | -76.78792 | 14 ft | 22 kts | 292° |
| 2026-04-29 21:19 | 17.93798 | -76.78937 | 14 ft | 21 kts | 291° |
| 2026-04-29 21:20 | 17.93833 | -76.79029 | 14 ft | 20 kts | 292° |
| 2026-04-29 21:20 | 17.93885 | -76.79163 | 14 ft | 19 kts | 291° |
| 2026-04-29 21:20 | 17.93933 | -76.79288 | 14 ft | 18 kts | 291° |
| 2026-04-29 21:20 | 17.93977 | -76.79404 | 14 ft | 17 kts | 292° |
| 2026-04-29 21:21 | 17.94021 | -76.79514 | 13 ft | 16 kts | 293° |
| 2026-04-29 21:21 | 17.94061 | -76.79617 | 13 ft | 15 kts | 290° |
| 2026-04-29 21:21 | 17.94089 | -76.79716 | 13 ft | 14 kts | 284° |
| 2026-04-29 21:21 | 17.94105 | -76.79812 | 13 ft | 13 kts | 278° |
| 2026-04-29 21:22 | 17.94101 | -76.79883 | 13 ft | 2 kts | 254° |
| 2026-04-29 21:22 | 17.94097 | -76.79887 | 13 ft | 3 kts | 230° |
| 2026-04-29 21:22 | 17.94056 | -76.79916 | 12 ft | 8 kts | 200° |
| 2026-04-29 21:23 | 17.94018 | -76.79905 | 13 ft | 6 kts | 138° |
| 2026-04-29 21:23 | 17.93998 | -76.79872 | 13 ft | 5 kts | 118° |
| 2026-04-29 21:23 | 17.93991 | -76.79856 | 13 ft | 8 kts | 114° |
| 2026-04-29 21:23 | 17.93885 | -76.79581 | 15 ft | 76 kts | 111° |
| 2026-04-29 21:24 | 17.93608 | -76.78866 | 15 ft | 133 kts | 112° |
| 2026-04-29 21:24 | 17.93213 | -76.77897 | 415 ft | 142 kts | 117° |
| 2026-04-29 21:24 | 17.92828 | -76.76936 | 999 ft | 143 kts | 109° |
| 2026-04-29 21:24 | 17.92456 | -76.75965 | 1560 ft | 144 kts | 110° |
| 2026-04-29 21:25 | 17.91833 | -76.75109 | 1892 ft | 165 kts | 144° |
| 2026-04-29 21:25 | 17.90623 | -76.74857 | 2235 ft | 200 kts | 190° |
| 2026-04-29 21:25 | 17.89236 | -76.75363 | 2713 ft | 222 kts | 198° |
| 2026-04-29 21:25 | 17.87732 | -76.75997 | 3062 ft | 241 kts | 200° |
| 2026-04-29 21:26 | 17.86168 | -76.76677 | 3726 ft | 245 kts | 200° |
| 2026-04-29 21:26 | 17.84587 | -76.77366 | 4460 ft | 247 kts | 199° |
| 2026-04-29 21:26 | 17.83061 | -76.78213 | 5170 ft | 253 kts | 220° |
| 2026-04-29 21:26 | 17.82091 | -76.79735 | 5908 ft | 256 kts | 252° |
| 2026-04-29 21:27 | 17.82016 | -76.81647 | 6242 ft | 276 kts | 286° |
| 2026-04-29 21:27 | 17.82688 | -76.83594 | 6713 ft | 289 kts | 293° |
| 2026-04-29 21:27 | 17.83467 | -76.85558 | 7392 ft | 294 kts | 294° |
| 2026-04-29 21:27 | 17.84273 | -76.87541 | 8121 ft | 297 kts | 293° |
| 2026-04-29 21:28 | 17.85101 | -76.89525 | 8912 ft | 297 kts | 297° |
| 2026-04-29 21:28 | 17.86253 | -76.91340 | 9615 ft | 301 kts | 310° |
| 2026-04-29 21:28 | 17.87631 | -76.93013 | 9943 ft | 302 kts | 311° |
| 2026-04-29 21:28 | 17.89019 | -76.94714 | 10288 ft | 315 kts | 310° |
| 2026-04-29 21:29 | 17.90489 | -76.96530 | 10420 ft | 338 kts | 310° |
| 2026-04-29 21:29 | 17.92051 | -76.98468 | 10614 ft | 355 kts | 310° |
| 2026-04-29 21:29 | 17.93663 | -77.00465 | 11108 ft | 362 kts | 309° |
| 2026-04-29 21:29 | 17.95299 | -77.02488 | 11729 ft | 365 kts | 309° |
| 2026-04-29 21:30 | 17.96950 | -77.04527 | 12333 ft | 368 kts | 309° |
| 2026-04-29 21:30 | 17.98611 | -77.06582 | 12960 ft | 371 kts | 308° |
| 2026-04-29 21:30 | 18.00284 | -77.08655 | 13593 ft | 373 kts | 309° |
| 2026-04-29 21:30 | 18.01962 | -77.10738 | 13923 ft | 374 kts | 309° |
| 2026-04-29 21:31 | 18.03646 | -77.12823 | 14008 ft | 378 kts | 309° |
| 2026-04-29 21:31 | 18.05368 | -77.14951 | 14025 ft | 385 kts | 309° |
| 2026-04-29 21:31 | 18.07106 | -77.17101 | 14031 ft | 387 kts | 309° |
| 2026-04-29 21:31 | 18.08843 | -77.19256 | 14031 ft | 386 kts | 309° |
| 2026-04-29 21:32 | 18.10580 | -77.21413 | 14031 ft | 387 kts | 309° |
| 2026-04-29 21:32 | 18.12321 | -77.23574 | 14037 ft | 387 kts | 309° |
| 2026-04-29 21:32 | 18.14056 | -77.25729 | 14037 ft | 386 kts | 309° |
| 2026-04-29 21:32 | 18.15789 | -77.27879 | 14055 ft | 385 kts | 309° |
| 2026-04-29 21:33 | 18.17523 | -77.30026 | 14052 ft | 385 kts | 309° |
| 2026-04-29 21:33 | 18.19235 | -77.32147 | 14054 ft | 386 kts | 309° |
| 2026-04-29 21:33 | 18.20967 | -77.34302 | 14053 ft | 386 kts | 308° |
| 2026-04-29 21:33 | 18.22476 | -77.36625 | 14056 ft | 385 kts | 297° |
| 2026-04-29 21:34 | 18.23709 | -77.39121 | 14063 ft | 385 kts | 296° |
| 2026-04-29 21:34 | 18.24958 | -77.41653 | 14065 ft | 385 kts | 296° |
| 2026-04-29 21:34 | 18.26181 | -77.44115 | 14074 ft | 385 kts | 296° |
| 2026-04-29 21:34 | 18.27422 | -77.46611 | 14074 ft | 385 kts | 296° |
| 2026-04-29 21:35 | 18.28663 | -77.49109 | 14074 ft | 385 kts | 296° |
| 2026-04-29 21:35 | 18.29893 | -77.51577 | 13918 ft | 374 kts | 296° |
| 2026-04-29 21:35 | 18.31083 | -77.53971 | 13693 ft | 366 kts | 296° |
| 2026-04-29 21:35 | 18.32256 | -77.56332 | 13436 ft | 363 kts | 296° |
| 2026-04-29 21:36 | 18.33420 | -77.58681 | 13184 ft | 361 kts | 296° |
| 2026-04-29 21:36 | 18.34578 | -77.61021 | 12928 ft | 360 kts | 296° |
| 2026-04-29 21:36 | 18.35734 | -77.63354 | 12672 ft | 359 kts | 296° |
| 2026-04-29 21:36 | 18.36886 | -77.65679 | 12430 ft | 358 kts | 296° |
| 2026-04-29 21:37 | 18.37899 | -77.68052 | 12178 ft | 353 kts | 284° |
| 2026-04-29 21:37 | 18.38129 | -77.70589 | 11934 ft | 349 kts | 263° |
| 2026-04-29 21:37 | 18.37475 | -77.73022 | 11696 ft | 346 kts | 242° |
| 2026-04-29 21:37 | 18.36068 | -77.75026 | 11290 ft | 338 kts | 224° |
| 2026-04-29 21:38 | 18.34396 | -77.76739 | 10804 ft | 334 kts | 226° |
| 2026-04-29 21:38 | 18.32901 | -77.78557 | 10583 ft | 319 kts | 232° |
| 2026-04-29 21:38 | 18.31662 | -77.80403 | 10379 ft | 302 kts | 237° |
| 2026-04-29 21:38 | 18.30643 | -77.82307 | 10038 ft | 296 kts | 243° |
| 2026-04-29 21:39 | 18.29825 | -77.84284 | 9894 ft | 295 kts | 249° |
| 2026-04-29 21:39 | 18.29191 | -77.86333 | 9784 ft | 295 kts | 254° |
| 2026-04-29 21:39 | 18.28740 | -77.88434 | 9642 ft | 295 kts | 259° |
| 2026-04-29 21:39 | 18.28470 | -77.90579 | 9185 ft | 296 kts | 265° |
| 2026-04-29 21:40 | 18.28398 | -77.92747 | 8676 ft | 297 kts | 271° |
| 2026-04-29 21:40 | 18.28526 | -77.94904 | 8179 ft | 296 kts | 276° |
| 2026-04-29 21:40 | 18.28847 | -77.97032 | 7802 ft | 292 kts | 282° |
| 2026-04-29 21:40 | 18.29344 | -77.99097 | 7185 ft | 290 kts | 287° |
| 2026-04-29 21:41 | 18.30012 | -78.01076 | 6560 ft | 285 kts | 292° |
| 2026-04-29 21:41 | 18.30841 | -78.02964 | 6015 ft | 283 kts | 298° |
| 2026-04-29 21:41 | 18.31824 | -78.04759 | 5487 ft | 284 kts | 303° |
| 2026-04-29 21:41 | 18.32961 | -78.06451 | 5036 ft | 281 kts | 309° |
| 2026-04-29 21:42 | 18.34267 | -78.07938 | 4573 ft | 279 kts | 321° |
| 2026-04-29 21:42 | 18.35896 | -78.08985 | 4224 ft | 272 kts | 338° |
| 2026-04-29 21:42 | 18.37723 | -78.09491 | 3674 ft | 269 kts | 356° |
| 2026-04-29 21:42 | 18.39519 | -78.09399 | 3472 ft | 248 kts | 12° |
| 2026-04-29 21:43 | 18.41063 | -78.08867 | 3339 ft | 220 kts | 28° |
| 2026-04-29 21:43 | 18.42331 | -78.08042 | 3117 ft | 210 kts | 41° |
| 2026-04-29 21:43 | 18.43341 | -78.06987 | 2909 ft | 198 kts | 53° |
| 2026-04-29 21:43 | 18.44053 | -78.05810 | 2670 ft | 182 kts | 65° |
| 2026-04-29 21:44 | 18.44554 | -78.04667 | 2447 ft | 161 kts | 67° |
| 2026-04-29 21:44 | 18.44996 | -78.03657 | 2257 ft | 145 kts | 65° |
| 2026-04-29 21:44 | 18.45412 | -78.02704 | 2076 ft | 141 kts | 65° |
| 2026-04-29 21:44 | 18.45813 | -78.01785 | 1901 ft | 137 kts | 65° |
| 2026-04-29 21:45 | 18.46213 | -78.00870 | 1722 ft | 137 kts | 66° |
| 2026-04-29 21:45 | 18.46610 | -77.99958 | 1542 ft | 139 kts | 65° |
| 2026-04-29 21:45 | 18.47007 | -77.99050 | 1367 ft | 137 kts | 63° |
| 2026-04-29 21:45 | 18.47411 | -77.98122 | 1197 ft | 137 kts | 66° |
| 2026-04-29 21:46 | 18.47805 | -77.97219 | 1033 ft | 136 kts | 65° |
| 2026-04-29 21:46 | 18.48199 | -77.96316 | 846 ft | 139 kts | 66° |
| 2026-04-29 21:46 | 18.48600 | -77.95397 | 682 ft | 140 kts | 65° |
| 2026-04-29 21:46 | 18.49002 | -77.94474 | 490 ft | 140 kts | 64° |
| 2026-04-29 21:47 | 18.49398 | -77.93564 | 301 ft | 137 kts | 65° |
| 2026-04-29 21:47 | 18.49792 | -77.92673 | 132 ft | 133 kts | 67° |
| 2026-04-29 21:47 | 18.50160 | -77.91822 | 48 ft | 118 kts | 66° |
| 2026-04-29 21:47 | 18.50458 | -77.91132 | 44 ft | 72 kts | 65° |
| 2026-04-29 21:48 | 18.50528 | -77.90888 | 45 ft | 15 kts | 88° |
| 2026-04-29 21:48 | 18.50530 | -77.90769 | 43 ft | 16 kts | 90° |
| 2026-04-29 21:48 | 18.50521 | -77.90716 | 39 ft | 4 kts | 140° |
| 2026-04-29 21:48 | 18.50490 | -77.90702 | 43 ft | 6 kts | 175° |
| 2026-04-29 21:49 | 18.50447 | -77.90735 | 42 ft | 10 kts | 237° |
| 2026-04-29 21:49 | 18.50416 | -77.90804 | 40 ft | 10 kts | 245° |
| 2026-04-29 21:49 | 18.50388 | -77.90871 | 44 ft | 10 kts | 245° |
| 2026-04-29 21:49 | 18.50360 | -77.90934 | 44 ft | 10 kts | 245° |
| 2026-04-29 21:50 | 18.50328 | -77.91008 | 44 ft | 13 kts | 246° |
| 2026-04-29 21:50 | 18.50292 | -77.91091 | 40 ft | 12 kts | 244° |
| 2026-04-29 21:50 | 18.50258 | -77.91170 | 44 ft | 11 kts | 246° |
| 2026-04-29 21:50 | 18.50227 | -77.91243 | 38 ft | 11 kts | 245° |
| 2026-04-29 21:51 | 18.50197 | -77.91311 | 37 ft | 10 kts | 245° |
| 2026-04-29 21:51 | 18.50170 | -77.91374 | 44 ft | 9 kts | 245° |
| 2026-04-29 21:51 | 18.50119 | -77.91489 | 39 ft | 8 kts | 245° |
| 2026-04-29 21:52 | 18.50095 | -77.91543 | 38 ft | 8 kts | 244° |
| 2026-04-29 21:52 | 18.50087 | -77.91560 | 43 ft | 0 kts | 243° |
| 2026-04-29 21:52 | 18.50085 | -77.91563 | 43 ft | 1 kts | 237° |
| 2026-04-29 21:52 | 18.50053 | -77.91573 | 42 ft | 6 kts | 174° |
| 2026-04-29 21:53 | 18.50016 | -77.91556 | 45 ft | 6 kts | 155° |
| 2026-04-29 21:53 | 18.49980 | -77.91550 | 37 ft | 5 kts | 178° |
| 2026-04-29 21:53 | 18.49954 | -77.91550 | 40 ft | 3 kts | 179° |
| 2026-04-29 21:53 | 18.49939 | -77.91550 | 38 ft | 2 kts | 180° |
| 2026-04-29 21:54 | 18.49932 | -77.91550 | 40 ft | 0 kts | 180° |
| 2026-04-29 21:54 | 18.49928 | -77.91550 | 41 ft | 1 kts | 180° |
| 2026-04-29 21:54 | 18.49926 | -77.91550 | 42 ft | 0 kts | 180° |